Time;durP1;ratioP1;P1;durP2;ratioP2;P2;SDS_P1;SDS_P2;PMS_P1;PMS_P2;Temp;Humidity;BMP_temperature;BMP_pressure;BME280_temperature;BME280_humidity;BME280_pressure;Samples;Min_cycle;Max_cycle;Signal;HPM_P1;HPM_P2
2023/03/28 07:59:37;;;;;;;14.90;4.68;;;;;;;19.75;45.14;101736.31;5131508;27;20796;-47
2023/03/28 08:02:06;;;;;;;10.25;4.40;;;;;;;20.76;42.64;101730.03;5109361;28;20043;-47
2023/03/28 08:04:34;;;;;;;9.02;3.67;;;;;;;21.58;40.67;101726.94;5110578;28;20040;-48
2023/03/28 08:07:03;;;;;;;9.65;3.97;;;;;;;22.09;39.99;101720.84;5110787;28;20024;-47
2023/03/28 08:09:31;;;;;;;10.60;4.10;;;;;;;22.44;38.84;101714.16;5109245;28;20023;-47
2023/03/28 08:11:59;;;;;;;12.07;4.13;;;;;;;22.54;38.80;101704.88;5101085;28;20473;-50
2023/03/28 08:14:26;;;;;;;11.80;3.17;;;;;;;22.79;38.07;101705.63;5092435;28;20052;-55
2023/03/28 08:16:53;;;;;;;7.25;3.70;;;;;;;22.77;38.33;101702.06;5089736;28;20028;-54
2023/03/28 08:19:20;;;;;;;9.65;4.38;;;;;;;22.88;37.88;101699.78;5089819;28;20119;-54
2023/03/28 08:21:48;;;;;;;11.50;4.50;;;;;;;22.90;37.97;101704.19;5089727;28;20032;-53
2023/03/28 08:24:16;;;;;;;13.00;4.53;;;;;;;22.99;37.60;101707.94;5089818;28;20025;-52
2023/03/28 08:26:43;;;;;;;12.57;4.38;;;;;;;23.13;37.80;101711.84;5089858;28;20847;-53
2023/03/28 08:29:11;;;;;;;11.80;4.32;;;;;;;23.29;37.41;101718.41;5089688;28;20056;-51
2023/03/28 08:31:40;;;;;;;11.32;4.32;;;;;;;23.17;37.62;101716.28;5089217;28;20107;-47
2023/03/28 08:34:07;;;;;;;14.27;5.63;;;;;;;23.24;37.21;101724.34;5090088;28;20029;-50
2023/03/28 08:36:35;;;;;;;12.25;4.85;;;;;;;23.22;37.16;101742.66;5088880;28;20040;-51
2023/03/28 08:39:04;;;;;;;13.70;5.57;;;;;;;23.28;37.44;101747.16;5092796;28;20035;-47
2023/03/28 08:42:08;;;;;;;13.90;4.68;;;;;;;23.26;37.56;101736.63;5088799;28;20062;-54
2023/03/28 08:44:56;;;;;;;13.38;5.35;;;;;;;23.26;37.08;101718.31;5089519;28;20038;-47
2023/03/28 08:47:31;;;;;;;21.95;12.35;;;;;;;23.26;37.15;101723.53;5085132;28;20041;-47
2023/03/28 08:50:03;;;;;;;;;;;;;;;23.32;37.51;101733.34;5089221;28;20492;-48
2023/03/28 08:52:31;;;;;;;21.85;14.43;;;;;;;23.55;36.76;101730.44;5087082;28;19998;-51
2023/03/28 08:55:19;;;;;;;27.55;18.08;;;;;;;23.59;36.59;101735.78;5094111;28;20028;-47
2023/03/28 08:57:48;;;;;;;45.35;28.05;;;;;;;23.66;36.79;101731.63;5087142;28;20066;-50
2023/03/28 09:00:18;;;;;;;68.90;40.92;;;;;;;23.80;36.64;101727.63;5087875;28;20024;-53
2023/03/28 09:02:46;;;;;;;80.32;51.80;;;;;;;23.74;36.84;101721.34;5088225;28;20132;-51
2023/03/28 09:05:15;;;;;;;91.75;57.00;;;;;;;23.77;37.18;101718.78;5092222;28;20070;-47
2023/03/28 09:08:05;;;;;;;100.07;64.78;;;;;;;23.88;37.33;101726.94;5090807;28;20031;-48
2023/03/28 09:10:50;;;;;;;119.20;76.28;;;;;;;23.94;37.29;101719.22;5077547;28;20032;-48
2023/03/28 09:13:27;;;;;;;129.43;80.82;;;;;;;23.77;37.62;101714.44;5073572;28;20025;-53
2023/03/28 09:16:05;;;;;;;127.15;85.95;;;;;;;23.88;37.81;101719.97;5074886;28;20020;-51
2023/03/28 09:18:36;;;;;;;141.50;93.95;;;;;;;23.75;38.07;101747.56;5078743;28;20071;-53
2023/03/28 09:21:10;;;;;;;153.07;98.80;;;;;;;23.74;38.20;101730.09;5073657;28;20028;-54
2023/03/28 09:24:17;;;;;;;143.45;98.13;;;;;;;23.87;38.03;101719.91;5074696;28;20098;-50
2023/03/28 09:26:52;;;;;;;162.48;107.30;;;;;;;23.86;38.28;101726.91;5059772;28;20374;-48
2023/03/28 09:29:23;;;;;;;172.43;116.70;;;;;;;23.83;38.56;101721.56;5074336;28;20098;-52
2023/03/28 09:31:58;;;;;;;177.82;119.90;;;;;;;23.91;38.40;101727.88;5081376;28;20117;-49
2023/03/28 09:34:27;;;;;;;;;;;;;;;24.14;38.31;101718.88;5078232;28;20024;-52
2023/03/28 09:36:59;;;;;;;194.13;129.80;;;;;;;24.16;37.98;101718.06;5073857;28;20349;-50
2023/03/28 09:39:36;;;;;;;199.32;136.80;;;;;;;24.30;38.19;101727.97;5074411;28;20115;-51
2023/03/28 09:42:27;;;;;;;200.05;136.98;;;;;;;24.25;38.50;101725.25;5074024;28;20506;-48
2023/03/28 09:45:33;;;;;;;211.82;141.40;;;;;;;24.33;38.51;101730.69;5074161;28;20024;-52
2023/03/28 09:48:02;;;;;;;210.95;146.65;;;;;;;24.40;38.04;101720.38;5070531;28;20119;-47
2023/03/28 09:50:30;;;;;;;225.45;150.02;;;;;;;24.42;38.32;101721.28;5089030;28;20020;-52
2023/03/28 09:52:58;;;;;;;228.45;156.77;;;;;;;24.42;38.41;101716.03;5074361;28;20028;-49
2023/03/28 09:55:29;;;;;;;224.25;160.35;;;;;;;24.48;38.38;101720.53;5074106;28;20024;-48
2023/03/28 09:58:01;;;;;;;232.38;160.38;;;;;;;24.51;38.32;101714.47;5073593;28;20056;-51
2023/03/28 10:00:29;;;;;;;263.13;188.95;;;;;;;24.49;38.52;101713.56;5072628;28;20032;-49
2023/03/28 10:02:57;;;;;;;255.20;183.35;;;;;;;24.52;38.51;101703.13;5078269;28;20028;-47
2023/03/28 10:05:36;;;;;;;262.38;178.57;;;;;;;24.56;38.58;101707.59;5072835;28;20021;-53
2023/03/28 10:08:18;;;;;;;261.60;184.90;;;;;;;24.63;38.98;101709.53;5073533;28;20385;-47
2023/03/28 10:10:55;;;;;;;263.45;184.30;;;;;;;24.62;38.83;101696.34;5072879;28;20655;-48
2023/03/28 10:13:23;;;;;;;261.75;188.05;;;;;;;24.75;38.53;101700.16;5073941;28;20099;-51
2023/03/28 10:15:52;;;;;;;260.48;179.18;;;;;;;24.81;38.18;101695.06;5073778;28;20029;-47
2023/03/28 10:18:25;;;;;;;267.63;187.00;;;;;;;24.78;38.71;101679.25;5074226;28;20124;-48
2023/03/28 10:20:53;;;;;;;266.08;190.85;;;;;;;24.74;38.93;101678.28;5071792;28;20493;-47
2023/03/28 10:23:23;;;;;;;251.25;177.65;;;;;;;24.75;38.56;101687.91;5073968;28;20032;-53
2023/03/28 10:25:53;;;;;;;236.77;168.82;;;;;;;24.52;38.65;101672.56;5072756;28;20453;-48
2023/03/28 10:28:30;;;;;;;224.52;157.38;;;;;;;24.58;38.68;101670.03;5074313;28;20032;-51
2023/03/28 10:31:00;;;;;;;213.25;150.77;;;;;;;24.70;38.33;101669.47;5071713;28;20024;-52
2023/03/28 10:33:31;;;;;;;232.52;153.93;;;;;;;24.62;38.23;101676.28;5071419;28;20029;-47
2023/03/28 10:36:01;;;;;;;225.60;155.70;;;;;;;24.50;38.45;101665.47;5073226;28;20111;-53
2023/03/28 10:38:46;;;;;;;233.57;157.75;;;;;;;24.36;38.85;101639.84;5072999;28;20074;-49
2023/03/28 10:41:25;;;;;;;221.85;149.27;;;;;;;24.49;38.77;101658.50;5072456;28;20036;-50
2023/03/28 10:43:53;;;;;;;224.13;149.38;;;;;;;24.62;38.42;101657.00;5072822;28;20024;-49
2023/03/28 10:46:29;;;;;;;229.02;151.55;;;;;;;24.58;38.81;101637.69;5071640;28;20106;-49
2023/03/28 10:48:59;;;;;;;224.02;151.93;;;;;;;24.75;38.46;101645.06;5076990;28;20047;-50
2023/03/28 10:51:26;;;;;;;225.70;154.43;;;;;;;24.71;38.67;101638.88;5072529;28;20025;-52
2023/03/28 10:54:13;;;;;;;210.48;144.10;;;;;;;24.77;38.79;101633.72;5075446;28;20099;-51
2023/03/28 10:56:49;;;;;;;210.40;145.80;;;;;;;24.98;38.33;101642.91;5072929;28;20040;-50
2023/03/28 10:59:40;;;;;;;212.00;142.90;;;;;;;24.99;37.92;101632.41;5076773;28;20098;-53
2023/03/28 11:02:26;;;;;;;213.88;145.63;;;;;;;25.01;38.27;101633.34;5071809;28;20440;-53
2023/03/28 11:05:18;;;;;;;207.00;143.75;;;;;;;24.97;38.38;101631.53;5072442;28;20040;-51
2023/03/28 11:07:54;;;;;;;208.27;140.93;;;;;;;25.13;38.00;101634.44;5069342;28;20036;-47
2023/03/28 11:10:43;;;;;;;211.30;143.65;;;;;;;25.14;38.10;101644.09;5075936;28;20029;-51
2023/03/28 11:13:43;;;;;;;210.40;142.35;;;;;;;25.25;37.81;101639.00;5058456;28;20020;-52
2023/03/28 11:16:37;;;;;;;205.30;139.13;;;;;;;25.34;37.86;101624.31;5075381;28;20100;-50
2023/03/28 11:19:43;;;;;;;201.73;140.32;;;;;;;25.28;37.81;101642.59;5074847;28;20035;-52
2023/03/28 11:22:20;;;;;;;208.40;142.55;;;;;;;25.23;37.81;101636.38;5074826;28;20039;-53
2023/03/28 11:25:06;;;;;;;202.05;142.18;;;;;;;25.16;38.44;101637.09;5070852;28;20129;-48
2023/03/28 11:27:52;;;;;;;214.98;145.93;;;;;;;25.14;38.12;101641.47;5068742;28;20120;-49
2023/03/28 11:30:26;;;;;;;213.70;148.70;;;;;;;25.13;38.15;101640.56;5071689;28;20028;-53
2023/03/28 11:33:13;;;;;;;218.05;149.27;;;;;;;25.08;38.67;101633.47;5072188;28;20026;-51
2023/03/28 11:35:45;;;;;;;217.23;146.25;;;;;;;24.96;38.81;101619.25;5071156;28;20029;-51
2023/03/28 11:38:20;;;;;;;211.10;145.55;;;;;;;25.05;38.74;101615.94;5071116;28;20122;-48
2023/03/28 11:41:16;;;;;;;204.38;143.63;;;;;;;25.06;38.73;101606.28;5075709;28;20060;-47
2023/03/28 11:43:59;;;;;;;218.45;147.20;;;;;;;25.07;38.75;101608.06;5070974;28;20044;-49
2023/03/28 11:46:29;;;;;;;217.65;149.23;;;;;;;25.15;38.42;101609.09;5071284;28;20031;-48
2023/03/28 11:49:01;;;;;;;208.82;141.98;;;;;;;25.13;38.36;101610.81;5070661;28;20489;-48
2023/03/28 11:51:34;;;;;;;216.98;146.90;;;;;;;25.13;38.53;101611.69;5071986;28;20040;-49
2023/03/28 11:54:11;;;;;;;205.13;143.60;;;;;;;25.02;38.75;101611.47;5076618;28;20031;-51
2023/03/28 11:56:47;;;;;;;201.73;142.35;;;;;;;25.12;38.59;101607.28;5071139;28;20461;-49
2023/03/28 11:59:37;;;;;;;206.02;144.20;;;;;;;25.03;38.59;101602.75;5071620;28;20131;-49
2023/03/28 12:02:25;;;;;;;207.15;143.27;;;;;;;25.12;38.74;101598.53;5071517;28;20115;-50
2023/03/28 12:04:58;;;;;;;203.38;142.70;;;;;;;25.36;38.29;101589.31;5074341;28;20497;-52
2023/03/28 12:07:34;;;;;;;207.07;142.65;;;;;;;25.24;38.61;101583.00;5070491;28;20028;-51
2023/03/28 12:10:02;;;;;;;210.43;146.10;;;;;;;25.22;38.70;101576.84;5071870;28;20028;-47
2023/03/28 12:12:34;;;;;;;215.60;145.88;;;;;;;25.24;38.39;101575.13;5072043;28;20107;-53
2023/03/28 12:15:16;;;;;;;215.43;149.40;;;;;;;25.35;38.31;101575.31;5072101;28;20024;-47
2023/03/28 12:17:47;;;;;;;214.82;151.35;;;;;;;25.15;38.58;101575.84;5070283;28;20116;-48
2023/03/28 12:20:18;;;;;;;218.80;148.48;;;;;;;25.21;38.77;101582.94;5071521;28;20078;-49
2023/03/28 12:22:49;;;;;;;222.95;155.10;;;;;;;25.27;38.39;101593.56;5070480;28;20020;-53
2023/03/28 12:25:28;;;;;;;220.27;156.02;;;;;;;25.17;38.71;101605.63;5070561;28;20028;-49
2023/03/28 12:27:59;;;;;;;222.25;157.40;;;;;;;25.19;38.92;101608.28;5072003;28;20725;-53
2023/03/28 12:30:41;;;;;;;228.80;161.93;;;;;;;25.09;38.83;101596.72;5074624;28;20028;-52
2023/03/28 12:33:10;;;;;;;228.15;164.80;;;;;;;25.19;38.93;101595.16;5071654;28;20024;-50
2023/03/28 12:35:49;;;;;;;222.57;159.20;;;;;;;25.12;39.17;101573.16;5071961;28;20028;-47
2023/03/28 12:38:28;;;;;;;230.45;163.63;;;;;;;25.37;38.42;101567.44;5071323;28;20033;-50
2023/03/28 12:40:59;;;;;;;237.85;168.57;;;;;;;25.39;38.53;101560.47;5075603;28;20028;-51
2023/03/28 12:43:42;;;;;;;236.25;170.48;;;;;;;25.32;38.73;101549.84;5071236;28;20162;-49
2023/03/28 12:46:13;;;;;;;244.40;171.65;;;;;;;25.30;38.54;101564.72;5074920;28;20397;-48
2023/03/28 12:48:53;;;;;;;243.18;174.02;;;;;;;25.29;38.69;101567.31;5075601;28;20033;-52
2023/03/28 12:51:24;;;;;;;243.55;173.25;;;;;;;25.13;39.41;101564.44;5076231;28;20066;-48
2023/03/28 12:54:14;;;;;;;247.38;175.88;;;;;;;25.39;38.56;101565.72;5075503;28;20031;-50
2023/03/28 12:56:47;;;;;;;237.10;172.15;;;;;;;25.47;38.69;101562.41;5069958;28;20446;-50
2023/03/28 12:59:35;;;;;;;247.55;181.43;;;;;;;25.53;38.29;101559.00;5072986;28;20048;-48
2023/03/28 13:02:29;;;;;;;248.07;173.65;;;;;;;25.48;38.48;101553.66;5074799;28;20029;-50
2023/03/28 13:05:35;;;;;;;246.45;177.63;;;;;;;25.53;38.58;101561.63;5075005;28;20086;-50
2023/03/28 13:08:16;;;;;;;251.05;181.60;;;;;;;25.52;38.29;101557.22;5075087;28;20401;-48
2023/03/28 13:10:47;;;;;;;239.07;173.93;;;;;;;25.54;38.65;101552.00;5079055;28;20528;-48
2023/03/28 13:13:18;;;;;;;259.95;188.02;;;;;;;25.53;38.56;101548.47;5073760;28;20040;-53
2023/03/28 13:16:06;;;;;;;252.32;187.13;;;;;;;25.42;38.95;101535.16;5078837;28;20173;-48
2023/03/28 13:18:35;;;;;;;257.48;192.70;;;;;;;25.47;38.78;101543.16;5047048;28;20047;-48
2023/03/28 13:21:06;;;;;;;265.73;192.32;;;;;;;25.58;38.57;101541.56;5073257;28;20447;-52
2023/03/28 13:23:44;;;;;;;253.38;180.38;;;;;;;25.58;38.70;101532.78;5078846;28;20474;-48
2023/03/28 13:26:12;;;;;;;255.95;187.88;;;;;;;25.61;38.30;101528.47;5074244;28;20268;-51
2023/03/28 13:28:45;;;;;;;258.48;191.07;;;;;;;25.61;38.56;101532.84;5078878;28;20035;-49
2023/03/28 13:31:20;;;;;;;268.95;191.43;;;;;;;25.37;38.75;101507.03;5073143;28;20033;-49
2023/03/28 13:33:54;;;;;;;268.80;195.23;;;;;;;25.69;38.11;101528.59;5073736;28;20028;-51
2023/03/28 13:36:24;;;;;;;274.17;198.93;;;;;;;25.71;38.42;101524.25;5073695;28;20064;-48
2023/03/28 13:39:22;;;;;;;261.95;191.50;;;;;;;25.79;38.08;101525.22;5074263;28;20286;-50
2023/03/28 13:41:50;;;;;;;285.08;204.15;;;;;;;25.81;38.25;101522.63;5071033;28;20032;-53
2023/03/28 13:44:37;;;;;;;280.77;200.35;;;;;;;25.70;38.53;101513.69;5078460;28;20054;-47
2023/03/28 13:47:05;;;;;;;281.95;205.20;;;;;;;25.72;38.01;101509.34;5072935;28;20393;-47
2023/03/28 13:49:38;;;;;;;272.95;199.85;;;;;;;25.71;38.26;101511.09;5072664;28;20020;-50
2023/03/28 13:52:08;;;;;;;289.50;209.73;;;;;;;25.59;38.48;101511.81;5072671;28;20505;-48
2023/03/28 13:54:36;;;;;;;281.13;208.90;;;;;;;25.65;38.56;101508.38;5073036;28;20466;-47
2023/03/28 13:57:07;;;;;;;305.42;211.40;;;;;;;25.68;38.43;101507.53;5073774;28;20028;-53
2023/03/28 13:59:38;;;;;;;285.00;207.15;;;;;;;25.70;38.60;101504.09;5073384;28;20119;-48
2023/03/28 14:02:28;;;;;;;284.92;207.80;;;;;;;25.72;38.64;101497.09;5076886;28;20470;-48
2023/03/28 14:05:04;;;;;;;294.38;217.73;;;;;;;25.66;38.69;101483.88;5070868;28;20064;-49
2023/03/28 14:07:31;;;;;;;290.70;213.98;;;;;;;25.74;38.53;101494.50;5073769;28;20028;-52
2023/03/28 14:09:59;;;;;;;294.20;220.50;;;;;;;25.64;38.58;101482.97;5073501;28;20035;-49
2023/03/28 14:12:29;;;;;;;283.58;215.02;;;;;;;25.45;39.17;101495.81;5072571;28;20032;-49
2023/03/28 14:14:59;;;;;;;283.27;209.85;;;;;;;25.67;38.61;101487.38;5074105;28;20029;-49
2023/03/28 14:17:31;;;;;;;286.50;211.15;;;;;;;25.65;38.50;101483.88;5072097;28;20107;-50
2023/03/28 14:20:03;;;;;;;293.90;214.20;;;;;;;25.62;38.67;101480.31;5077223;28;20025;-52
2023/03/28 14:22:32;;;;;;;289.77;213.18;;;;;;;25.59;38.94;101482.91;5073536;28;20024;-47
2023/03/28 14:25:02;;;;;;;278.02;201.70;;;;;;;25.59;38.85;101482.00;5078049;28;20020;-51
2023/03/28 14:27:36;;;;;;;279.85;203.38;;;;;;;25.47;38.99;101499.38;5073264;28;20027;-51
2023/03/28 14:30:36;;;;;;;265.05;200.38;;;;;;;25.52;38.65;101491.53;5073389;28;20029;-49
2023/03/28 14:33:17;;;;;;;250.70;185.88;;;;;;;25.50;38.68;101488.00;5069863;28;20043;-51
2023/03/28 14:35:56;;;;;;;256.25;189.65;;;;;;;25.48;38.71;101484.50;5072389;28;20043;-51
2023/03/28 14:38:36;;;;;;;260.08;191.65;;;;;;;25.43;38.95;101475.66;5073322;28;20029;-49
2023/03/28 14:41:20;;;;;;;265.85;189.57;;;;;;;25.51;38.84;101467.88;5072846;28;20032;-50
2023/03/28 14:43:52;;;;;;;265.42;189.60;;;;;;;25.47;38.78;101462.59;5072165;28;20119;-54
2023/03/28 14:46:23;;;;;;;251.93;184.73;;;;;;;25.44;38.74;101464.28;5073053;28;20477;-52
2023/03/28 14:48:52;;;;;;;265.80;193.38;;;;;;;25.39;39.02;101452.78;5073069;28;20392;-52
2023/03/28 14:51:21;;;;;;;263.25;194.25;;;;;;;25.40;38.89;101450.19;5072984;28;20025;-52
2023/03/28 14:53:50;;;;;;;265.52;200.02;;;;;;;25.38;38.92;101435.28;5073330;28;20024;-49
2023/03/28 14:56:24;;;;;;;267.90;199.68;;;;;;;25.35;39.15;101433.50;5071383;28;20119;-49
2023/03/28 14:58:54;;;;;;;263.38;192.38;;;;;;;25.41;39.18;101430.06;5071542;28;20044;-53
2023/03/28 15:01:22;;;;;;;269.05;199.98;;;;;;;25.41;39.17;101430.06;5071375;28;20036;-54
2023/03/28 15:04:03;;;;;;;269.08;199.77;;;;;;;25.40;38.88;101423.03;5071716;28;20025;-53
2023/03/28 15:06:33;;;;;;;279.35;206.05;;;;;;;25.42;38.90;101416.09;5071628;28;20370;-50
2023/03/28 15:09:10;;;;;;;264.63;197.00;;;;;;;25.32;39.15;101407.19;5070915;28;20028;-52
2023/03/28 15:11:42;;;;;;;278.80;203.40;;;;;;;25.30;39.17;101403.66;5074547;28;20090;-50
2023/03/28 15:14:32;;;;;;;270.45;201.60;;;;;;;25.29;39.43;101415.91;5076809;28;20028;-50
2023/03/28 15:17:00;;;;;;;267.95;198.63;;;;;;;25.36;39.13;101409.00;5075666;28;20051;-54
2023/03/28 15:19:40;;;;;;;276.30;201.90;;;;;;;25.32;39.36;101415.94;5072091;28;20032;-48
2023/03/28 15:22:11;;;;;;;277.77;204.82;;;;;;;25.28;39.20;101414.16;5076991;28;20020;-50
2023/03/28 15:24:40;;;;;;;278.10;203.80;;;;;;;25.33;39.23;101412.44;5072450;28;20029;-50
2023/03/28 15:27:12;;;;;;;272.08;204.13;;;;;;;25.31;39.11;101411.56;5072074;28;20111;-49
2023/03/28 15:29:40;;;;;;;257.65;193.05;;;;;;;25.31;39.01;101403.69;5060746;28;20111;-49
2023/03/28 15:32:16;;;;;;;268.80;202.18;;;;;;;25.23;39.22;101402.69;5075029;28;20078;-49
2023/03/28 15:34:48;;;;;;;271.05;201.48;;;;;;;25.26;39.27;101399.19;5071107;28;20473;-52
2023/03/28 15:37:20;;;;;;;283.73;201.93;;;;;;;25.15;39.43;101397.31;5071497;28;20032;-51
2023/03/28 15:39:49;;;;;;;282.98;205.65;;;;;;;25.19;39.56;101392.97;5071816;28;20036;-53
2023/03/28 15:42:21;;;;;;;273.95;203.75;;;;;;;25.17;39.46;101394.69;5072846;28;20454;-50
2023/03/28 15:44:59;;;;;;;272.25;202.25;;;;;;;25.26;39.34;101392.22;5072869;28;20077;-47
2023/03/28 15:47:29;;;;;;;262.98;195.88;;;;;;;25.28;39.28;101387.88;5072725;28;20063;-49
2023/03/28 15:50:03;;;;;;;257.58;189.77;;;;;;;25.29;39.36;101387.03;5071759;28;20024;-48
2023/03/28 15:52:33;;;;;;;268.02;193.52;;;;;;;25.20;39.47;101386.00;5071766;28;20032;-49
2023/03/28 15:55:02;;;;;;;255.15;186.80;;;;;;;25.25;38.88;101381.69;5054803;28;20493;-54
2023/03/28 15:57:30;;;;;;;247.60;182.85;;;;;;;25.28;39.33;101379.09;5071017;28;20072;-52
2023/03/28 15:59:59;;;;;;;260.15;186.52;;;;;;;25.25;39.40;101369.44;5072870;28;20111;-49
2023/03/28 16:02:26;;;;;;;250.52;182.65;;;;;;;25.17;39.27;101371.06;5072801;28;20029;-50
2023/03/28 16:05:13;;;;;;;252.32;180.48;;;;;;;25.16;39.54;101383.34;5072450;28;20028;-50
2023/03/28 16:07:45;;;;;;;253.52;183.80;;;;;;;25.11;39.84;101381.50;5069639;28;20041;-48
2023/03/28 16:10:14;;;;;;;242.75;178.32;;;;;;;25.05;39.71;101377.06;5072374;28;20114;-48
2023/03/28 16:12:42;;;;;;;249.60;179.55;;;;;;;25.19;39.52;101377.22;5072253;28;20028;-51
2023/03/28 16:15:10;;;;;;;248.20;180.00;;;;;;;25.21;39.47;101385.16;5072470;28;20032;-48
2023/03/28 16:17:40;;;;;;;248.30;185.93;;;;;;;25.26;39.22;101389.59;5071288;28;20029;-51
2023/03/28 16:20:15;;;;;;;267.85;189.50;;;;;;;25.31;39.26;101385.31;5074147;28;20394;-51
2023/03/28 16:22:44;;;;;;;254.20;190.85;;;;;;;25.28;39.42;101393.13;5076538;28;20029;-53
2023/03/28 16:25:11;;;;;;;266.33;188.23;;;;;;;25.24;39.56;101386.06;5075004;28;20021;-54
2023/03/28 16:27:41;;;;;;;261.38;191.73;;;;;;;25.16;39.61;101367.56;5075248;28;20031;-50
2023/03/28 16:30:35;;;;;;;263.67;191.68;;;;;;;25.22;39.70;101373.78;5074736;28;20031;-49
2023/03/28 16:33:05;;;;;;;266.30;193.90;;;;;;;25.20;39.97;101371.13;5076170;28;20036;-48
2023/03/28 16:35:33;;;;;;;267.35;195.27;;;;;;;25.18;39.87;101359.72;5076129;28;20664;-54
2023/03/28 16:38:01;;;;;;;256.23;191.38;;;;;;;25.18;39.99;101359.72;5075882;28;20028;-53
2023/03/28 16:40:29;;;;;;;271.00;200.20;;;;;;;25.15;40.02;101362.31;5079147;28;20046;-52
2023/03/28 16:42:56;;;;;;;270.60;197.88;;;;;;;25.16;39.99;101354.44;5073889;28;20459;-50
2023/03/28 16:45:24;;;;;;;270.23;194.90;;;;;;;25.06;40.29;101360.44;5077890;28;20024;-48
2023/03/28 16:47:53;;;;;;;274.85;195.55;;;;;;;25.10;40.39;101356.97;5075509;28;20504;-51
2023/03/28 16:50:20;;;;;;;265.83;192.95;;;;;;;25.08;40.35;101356.06;5078294;28;20063;-54
2023/03/28 16:52:48;;;;;;;259.65;193.70;;;;;;;24.94;40.61;101342.75;5073388;28;20029;-51
2023/03/28 16:55:16;;;;;;;265.10;194.63;;;;;;;25.00;40.36;101350.72;5079476;28;20021;-54
2023/03/28 16:57:45;;;;;;;256.55;192.23;;;;;;;25.04;40.31;101349.03;5074789;28;20064;-53
2023/03/28 17:00:16;;;;;;;259.13;195.30;;;;;;;25.05;40.31;101358.69;5074739;28;20029;-54
2023/03/28 17:02:45;;;;;;;252.13;188.98;;;;;;;25.06;40.30;101343.78;5077383;28;20027;-55
2023/03/28 17:05:13;;;;;;;275.88;196.60;;;;;;;25.06;40.46;101349.03;5094224;28;20054;-50
2023/03/28 17:07:41;;;;;;;263.33;196.57;;;;;;;24.97;40.30;101344.53;5074202;28;20028;-50
2023/03/28 17:10:08;;;;;;;264.63;192.82;;;;;;;25.02;40.70;101349.00;5075240;28;20487;-54
2023/03/28 17:12:36;;;;;;;275.77;202.38;;;;;;;24.99;40.41;101348.06;5074026;28;20086;-53
2023/03/28 17:15:03;;;;;;;278.23;202.35;;;;;;;25.03;40.53;101349.91;5075002;28;20090;-53
2023/03/28 17:17:31;;;;;;;277.50;199.75;;;;;;;25.10;40.12;101349.09;5074975;28;20029;-50
2023/03/28 17:19:59;;;;;;;276.30;199.65;;;;;;;25.06;40.29;101349.03;5074871;28;20025;-48
2023/03/28 17:22:27;;;;;;;265.30;196.85;;;;;;;25.14;39.85;101348.28;5075431;28;20107;-53
2023/03/28 17:24:56;;;;;;;255.55;187.63;;;;;;;25.14;40.02;101355.31;5074829;28;20104;-53
2023/03/28 17:27:24;;;;;;;266.52;193.63;;;;;;;25.02;40.25;101346.38;5057732;28;20436;-50
2023/03/28 17:29:52;;;;;;;279.73;199.25;;;;;;;25.08;40.19;101347.31;5074566;28;20512;-49
2023/03/28 17:32:19;;;;;;;284.13;209.35;;;;;;;25.02;40.30;101342.88;5075034;28;20033;-50
2023/03/28 17:34:47;;;;;;;318.95;236.25;;;;;;;25.11;40.24;101352.63;5073512;28;20053;-49
2023/03/28 17:37:16;;;;;;;348.40;252.52;;;;;;;24.89;40.72;101354.94;5074892;28;20029;-49
2023/03/28 17:39:45;;;;;;;346.90;252.50;;;;;;;25.07;40.31;101351.69;5073326;28;20457;-49
2023/03/28 17:42:14;;;;;;;340.45;246.98;;;;;;;24.96;40.63;101354.16;5074990;28;20087;-51
2023/03/28 17:44:42;;;;;;;336.15;245.70;;;;;;;24.87;40.78;101354.91;5072890;28;20092;-48
2023/03/28 17:47:10;;;;;;;326.48;234.63;;;;;;;24.94;40.78;101348.00;5074744;28;20032;-49
2023/03/28 17:49:39;;;;;;;324.65;236.93;;;;;;;24.96;40.55;101350.66;5074743;28;20389;-49
2023/03/28 17:52:08;;;;;;;317.30;224.02;;;;;;;24.99;40.36;101348.06;5075067;28;20107;-48
2023/03/28 17:54:36;;;;;;;314.88;227.05;;;;;;;25.05;40.31;101357.78;5074257;28;20044;-49
2023/03/28 17:57:05;;;;;;;305.00;223.93;;;;;;;24.96;40.71;101359.41;5074736;28;20016;-53
2023/03/28 17:59:33;;;;;;;315.10;223.20;;;;;;;25.09;40.65;101356.97;5074183;28;20075;-48
2023/03/28 18:02:02;;;;;;;302.27;217.70;;;;;;;25.00;40.76;101358.59;5073936;28;20033;-49
2023/03/28 18:04:30;;;;;;;299.77;219.63;;;;;;;24.82;40.53;101330.34;5074140;28;20053;-48
2023/03/28 18:06:58;;;;;;;299.90;222.00;;;;;;;25.08;40.72;101365.69;5074200;28;20437;-49
2023/03/28 18:09:26;;;;;;;312.30;226.65;;;;;;;25.08;40.73;101368.31;5074072;28;20028;-54
2023/03/28 18:11:53;;;;;;;309.75;226.27;;;;;;;25.00;40.97;101371.69;5074516;28;20032;-50
2023/03/28 18:14:20;;;;;;;334.38;236.25;;;;;;;25.02;40.98;101371.75;5074546;28;20381;-53
2023/03/28 18:16:49;;;;;;;344.05;253.13;;;;;;;25.06;40.89;101370.94;5073946;28;20025;-51
2023/03/28 18:19:17;;;;;;;349.15;259.63;;;;;;;25.07;41.00;101372.69;5074208;28;20024;-49
2023/03/28 18:21:46;;;;;;;357.38;266.08;;;;;;;25.17;40.82;101371.97;5073852;28;20031;-51
2023/03/28 18:24:14;;;;;;;358.85;270.80;;;;;;;25.17;41.03;101374.59;5074228;28;20103;-48
2023/03/28 18:26:42;;;;;;;353.17;267.77;;;;;;;25.27;40.90;101372.97;5055692;28;20481;-48
2023/03/28 18:29:12;;;;;;;380.23;289.88;;;;;;;25.28;40.84;101374.75;5074043;28;20034;-49
2023/03/28 18:31:41;;;;;;;400.38;307.25;;;;;;;25.28;40.88;101366.88;5073996;28;20393;-50
2023/03/28 18:34:08;;;;;;;399.45;308.48;;;;;;;25.24;41.02;101356.28;5073739;28;20363;-49
2023/03/28 18:36:39;;;;;;;386.80;299.52;;;;;;;25.19;41.18;101364.09;5073555;28;20043;-48
2023/03/28 18:39:09;;;;;;;384.38;294.63;;;;;;;25.22;41.13;101356.28;5073882;28;20062;-49
2023/03/28 18:41:36;;;;;;;383.08;294.48;;;;;;;25.27;40.86;101361.59;5073445;28;20016;-51
2023/03/28 18:44:05;;;;;;;372.23;279.70;;;;;;;25.20;40.96;101358.00;5073511;28;20107;-48
2023/03/28 18:46:33;;;;;;;370.98;279.65;;;;;;;25.27;41.10;101367.75;5073250;28;20025;-49
2023/03/28 18:49:01;;;;;;;363.17;271.88;;;;;;;25.35;40.85;101380.97;5073111;28;20024;-48
2023/03/28 18:51:29;;;;;;;359.35;270.20;;;;;;;25.45;40.58;101374.13;5073169;28;20024;-48
2023/03/28 18:53:57;;;;;;;350.88;270.50;;;;;;;25.47;40.66;101370.66;5073544;28;20080;-48
2023/03/28 18:56:24;;;;;;;341.10;256.42;;;;;;;25.51;40.28;101376.81;5073363;28;20401;-48
2023/03/28 18:58:52;;;;;;;337.73;254.55;;;;;;;25.50;40.56;101382.94;5073581;28;20053;-50
2023/03/28 19:01:21;;;;;;;315.40;246.88;;;;;;;25.72;40.09;101383.22;5072907;28;20039;-48
2023/03/28 19:03:50;;;;;;;331.95;251.60;;;;;;;25.68;40.29;101390.19;5072235;28;20120;-49
2023/03/28 19:06:18;;;;;;;323.33;243.02;;;;;;;25.59;40.36;101387.44;5073232;28;20048;-49
2023/03/28 19:08:46;;;;;;;314.00;243.43;;;;;;;25.60;40.36;101383.94;5073475;28;20025;-48
2023/03/28 19:11:15;;;;;;;313.52;241.23;;;;;;;25.70;40.27;101388.47;5072767;28;20032;-51
2023/03/28 19:13:43;;;;;;;317.88;237.57;;;;;;;25.67;40.10;101393.69;5073603;28;20024;-49
2023/03/28 19:16:13;;;;;;;312.38;236.45;;;;;;;25.69;40.16;101397.22;5071973;28;20108;-48
2023/03/28 19:18:43;;;;;;;288.27;218.88;;;;;;;25.76;39.89;101395.53;5072721;28;20029;-48
2023/03/28 19:21:12;;;;;;;295.45;224.90;;;;;;;25.69;40.21;101391.94;5071111;28;20052;-48
2023/03/28 19:23:41;;;;;;;289.77;219.98;;;;;;;25.69;40.15;101388.44;5073024;28;20441;-51